Wales, AK

9:55 PM AKDT on August 28, 2016 (GMT -0800)
Tin City LRRS | | Change Station

Elev 272 ft 65.56 °N, 167.92 °W | Updated 1 hour ago

Overcast
Overcast
46 °F
Feels Like 38 °F
N
18
Wind Variable Wind from NNE

Today
High -- | Low -- °F
--% Chance of Precip.
Yesterday
High -- | Low -- °F
Precip. -- in
Pressure 30.43 in
Visibility 10.0 miles
Clouds Mostly Cloudy 1500 ft
Overcast 2700 ft
Windchill 38 °F
Dew Point 43 °F
Humidity 90%
Rainfall 0.00 in
Snow Depth Not available.
7:38 AM 10:44 PM
Waning Crescent, 11% visible
METAR PATC 290455Z AUTO 02016KT 10SM BKN015 OVC027 08/06 A3042 RMK AO2 SLP305 T00760061
Pressure 30.43 in
Visibility 10.0 miles
Clouds Mostly Cloudy 1500 ft
Overcast 2700 ft
Windchill 38 °F
Dew Point 43 °F
Humidity 90%
Rainfall 0.00 in
Snow Depth Not available.
7:38 AM 10:44 PM
Waning Crescent, 11% visible
METAR PATC 290455Z AUTO 02016KT 10SM BKN015 OVC027 08/06 A3042 RMK AO2 SLP305 T00760061

10-Day Weather Forecast

Almanac

Astronomy

Aug. 28, 2016 Rise Set
Actual Time
Civil Twilight
Nautical Twilight
Astronomical Twilight
Moon
Length of Visible Light
Length of Day
Tomorrow will be .
, % of the Moon is Illuminated

Today's Extremes

State Highs State Lows

Community

WunderPhotos

Upload Photos

1,935,800 photos uploaded!

WunderBlog® & News

Nearby

Air Quality

  Air Quality AQ Index Pollutant
Not available.

Snow Depth

Station Depth Elevation

Earthquake Activity

City Distance Mag. Time & Date
Minimum magnitude displayed is 2.5.

Coastal Water Temperatures

Place Temperature

Stations

Nearby Weather Stations

Station Location Temp. Windchill Dew Point Humidity Wind Precip. Elev Updated Type
                   

Watches & Warnings

There are currently no watches in effect.